createdAt,value
2019-03-15T14:42:27.601Z,3.15
2019-03-15T14:44:56.055Z,2.55
2019-03-15T14:47:24.461Z,3.00
2019-03-15T14:49:52.900Z,2.50
2019-03-15T14:52:21.350Z,2.70
2019-03-15T14:54:49.861Z,2.60
2019-03-15T14:57:18.311Z,3.30
2019-03-15T14:59:47.003Z,2.55
2019-03-15T15:02:15.419Z,3.08
2019-03-15T15:04:44.235Z,2.90
2019-03-15T15:07:12.662Z,2.92
2019-03-15T15:09:41.115Z,2.72
2019-03-15T15:12:09.626Z,3.10
2019-03-15T15:14:38.063Z,3.20
2019-03-15T15:17:06.703Z,2.87
2019-03-15T15:19:35.401Z,2.77
2019-03-15T15:22:04.302Z,3.67
2019-03-15T15:24:32.743Z,3.25
2019-03-15T15:27:01.373Z,3.30
2019-03-15T15:29:29.844Z,3.12
2019-03-15T15:31:58.272Z,3.22
2019-03-15T15:34:26.820Z,3.05
2019-03-15T15:36:55.268Z,3.50
2019-03-15T15:39:23.725Z,3.47
2019-03-15T15:41:52.729Z,3.47
2019-03-15T15:44:21.305Z,3.37
2019-03-15T15:46:49.742Z,3.50
2019-03-15T15:49:18.310Z,3.02
2019-03-15T15:51:46.739Z,3.80
2019-03-15T15:54:15.186Z,3.40
2019-03-15T15:56:43.635Z,3.20
2019-03-15T15:59:12.076Z,3.37
2019-03-15T16:01:40.495Z,3.20
2019-03-15T16:04:08.953Z,3.52
2019-03-15T16:06:37.420Z,3.20
2019-03-15T16:09:07.087Z,3.22
2019-03-15T16:11:35.558Z,3.72
2019-03-15T16:14:04.071Z,3.40
2019-03-15T16:16:32.496Z,3.33
2019-03-15T16:19:01.167Z,2.70
2019-03-15T16:21:33.080Z,3.25
2019-03-15T16:24:02.777Z,3.22
2019-03-15T16:26:31.560Z,3.60
2019-03-15T16:29:00.204Z,3.65
2019-03-15T16:31:28.679Z,3.80
2019-03-15T16:33:57.554Z,3.98
2019-03-15T16:36:26.025Z,3.87
2019-03-15T16:38:54.495Z,3.02
2019-03-15T16:41:22.955Z,3.02
2019-03-15T16:43:51.404Z,3.50
2019-03-15T16:46:19.821Z,3.40
2019-03-15T16:48:48.465Z,3.35
2019-03-15T16:51:19.766Z,3.55
2019-03-15T16:53:47.053Z,3.30
2019-03-15T16:56:15.592Z,3.30
2019-03-15T16:58:45.874Z,4.30
2019-03-15T17:01:15.251Z,3.50
2019-03-15T17:03:44.077Z,4.47
2019-03-15T17:06:12.516Z,4.35
2019-03-15T17:08:41.164Z,4.33
2019-03-15T17:11:09.681Z,4.50
2019-03-15T17:13:38.293Z,3.00
2019-03-15T17:16:06.836Z,3.83
2019-03-15T17:18:35.520Z,4.70
2019-03-15T17:21:04.122Z,3.50
2019-03-15T17:23:32.580Z,3.55
2019-03-15T17:26:01.037Z,4.55
2019-03-15T17:28:29.468Z,3.90
2019-03-15T17:31:09.159Z,4.03
2019-03-15T17:33:28.264Z,4.50
2019-03-15T17:35:56.680Z,4.10
2019-03-15T17:38:25.363Z,4.10
2019-03-15T17:40:53.860Z,4.75
2019-03-15T17:43:22.276Z,3.70
2019-03-15T17:45:50.709Z,4.30
2019-03-15T17:48:19.168Z,3.95
2019-03-15T17:50:47.611Z,4.65
2019-03-15T17:53:16.023Z,4.60
2019-03-15T17:55:44.722Z,4.60
2019-03-15T17:58:13.157Z,4.28
2019-03-15T18:00:48.525Z,3.60
2019-03-15T18:03:21.168Z,4.08
2019-03-15T18:05:47.635Z,4.03
2019-03-15T18:08:16.055Z,5.53
2019-03-15T18:10:44.811Z,3.83
2019-03-15T18:13:13.255Z,4.72
2019-03-15T18:15:41.729Z,4.08
2019-03-15T18:18:10.195Z,3.80
2019-03-15T18:20:38.801Z,4.28
2019-03-15T18:23:07.228Z,4.35
2019-03-15T18:25:35.915Z,4.20
2019-03-15T18:28:04.359Z,4.78
2019-03-15T18:30:35.087Z,6.00
2019-03-15T18:33:05.252Z,4.05
2019-03-15T18:35:35.681Z,5.05
2019-03-15T18:38:04.746Z,4.90
2019-03-15T18:40:34.194Z,4.42
2019-03-15T18:43:02.719Z,4.35
2019-03-15T18:45:31.227Z,4.80
2019-03-15T18:47:59.901Z,5.12
2019-03-15T18:50:28.796Z,5.40
2019-03-15T18:52:57.223Z,4.37
2019-03-15T18:55:25.993Z,4.78
2019-03-15T18:57:54.473Z,4.33
2019-03-15T19:00:24.595Z,3.87
2019-03-15T19:02:53.280Z,4.22
2019-03-15T19:05:22.035Z,3.42
2019-03-15T19:07:50.642Z,4.33
2019-03-15T19:10:19.543Z,4.37
2019-03-15T19:12:48.136Z,4.65
2019-03-15T19:15:18.780Z,4.10
2019-03-15T19:17:47.262Z,4.55
2019-03-15T19:20:16.634Z,4.40
2019-03-15T19:22:45.167Z,4.90
2019-03-15T19:25:14.673Z,4.28
2019-03-15T19:27:43.121Z,4.25
2019-03-15T19:30:15.897Z,4.30
2019-03-15T19:32:45.180Z,4.25
2019-03-15T19:35:13.653Z,5.25
2019-03-15T19:37:42.325Z,4.25
2019-03-15T19:40:18.885Z,4.42
2019-03-15T19:42:47.406Z,4.05
2019-03-15T19:45:16.831Z,4.47
2019-03-15T19:47:45.289Z,4.30
2019-03-15T19:50:16.202Z,4.87
2019-03-15T19:52:44.629Z,4.80
2019-03-15T19:55:14.715Z,4.62
2019-03-15T19:57:43.169Z,4.22
2019-03-15T20:00:18.993Z,5.20
2019-03-15T20:02:47.626Z,4.17
2019-03-15T20:05:16.231Z,5.45
2019-03-15T20:07:44.914Z,4.60
2019-03-15T20:10:16.767Z,4.92
2019-03-15T20:12:45.035Z,5.50
2019-03-15T20:15:17.305Z,5.47
2019-03-15T20:17:46.170Z,5.60
2019-03-15T20:20:15.990Z,4.03
2019-03-15T20:22:49.336Z,4.55
2019-03-15T20:25:18.735Z,5.33
2019-03-15T20:27:47.395Z,5.15
2019-03-15T20:30:21.947Z,4.90
2019-03-15T20:32:50.398Z,5.03
2019-03-15T20:35:18.876Z,4.78
2019-03-15T20:37:47.339Z,5.78
2019-03-15T20:40:15.861Z,4.97
2019-03-15T20:42:44.332Z,5.28
2019-03-15T20:45:15.529Z,6.25
2019-03-15T20:47:45.046Z,4.40
2019-03-15T20:50:14.205Z,4.87
2019-03-15T20:52:42.681Z,4.45
2019-03-15T20:55:11.117Z,5.03
2019-03-15T20:57:40.274Z,5.25
2019-03-15T21:00:13.846Z,4.95
2019-03-15T21:02:42.768Z,4.67
2019-03-15T21:05:11.401Z,4.50
2019-03-15T21:07:43.161Z,5.15
2019-03-15T21:10:16.083Z,4.83
2019-03-15T21:12:44.613Z,4.75
2019-03-15T21:15:14.953Z,5.47
2019-03-15T21:17:43.762Z,5.42
2019-03-15T21:20:17.080Z,6.05
2019-03-15T21:22:45.578Z,4.95
2019-03-15T21:25:14.016Z,5.03
2019-03-15T21:27:52.895Z,4.95
2019-03-15T21:30:18.791Z,5.12
2019-03-15T21:32:47.268Z,5.40
2019-03-15T21:35:15.672Z,4.85
2019-03-15T21:37:44.973Z,4.87
2019-03-15T21:40:15.633Z,4.87
2019-03-15T21:42:44.060Z,5.60
2019-03-15T21:45:13.150Z,5.08
2019-03-15T21:47:41.653Z,5.58
2019-03-15T21:50:17.274Z,5.45
2019-03-15T21:52:45.908Z,4.78
2019-03-15T21:55:14.596Z,4.85
2019-03-15T21:57:43.057Z,5.37
2019-03-15T22:00:18.377Z,6.15
2019-03-15T22:02:46.812Z,5.20
2019-03-15T22:05:15.326Z,5.97
2019-03-15T22:07:44.257Z,5.47
2019-03-15T22:10:16.262Z,5.47
2019-03-15T22:12:44.762Z,6.03
2019-03-15T22:15:14.937Z,5.85
2019-03-15T22:17:43.635Z,4.42
2019-03-15T22:20:16.219Z,5.12
2019-03-15T22:22:44.638Z,4.95
2019-03-15T22:25:13.628Z,5.20
2019-03-15T22:27:42.047Z,4.40
2019-03-15T22:30:14.963Z,5.05
2019-03-15T22:32:43.747Z,5.05
2019-03-15T22:35:12.869Z,5.42
2019-03-15T22:37:41.363Z,5.12
2019-03-15T22:40:14.056Z,5.20
2019-03-15T22:42:42.792Z,4.97
2019-03-15T22:45:12.521Z,5.05
2019-03-15T22:47:41.015Z,5.05
2019-03-15T22:50:10.886Z,6.42
2019-03-15T22:52:39.428Z,5.67
2019-03-15T22:55:09.765Z,5.37
2019-03-15T22:57:38.208Z,5.15
2019-03-15T23:00:13.410Z,5.58
2019-03-15T23:02:41.922Z,5.58
2019-03-15T23:05:10.790Z,4.20
2019-03-15T23:07:39.236Z,5.62
2019-03-15T23:10:09.983Z,5.72
2019-03-15T23:12:38.680Z,6.55
2019-03-15T23:15:09.108Z,5.00
2019-03-15T23:17:37.644Z,5.53
2019-03-15T23:20:08.515Z,4.87
2019-03-15T23:22:37.234Z,5.83
2019-03-15T23:25:06.744Z,4.92
2019-03-15T23:27:35.188Z,4.85
2019-03-15T23:30:05.499Z,4.92
2019-03-15T23:32:33.964Z,5.40
2019-03-15T23:35:02.397Z,4.97
2019-03-15T23:37:31.359Z,5.30
2019-03-15T23:39:59.790Z,4.22
2019-03-15T23:42:28.263Z,4.90
2019-03-15T23:44:56.760Z,4.85
2019-03-15T23:47:25.180Z,5.12
2019-03-15T23:49:53.706Z,4.80
2019-03-15T23:52:22.173Z,4.37
2019-03-15T23:54:50.628Z,4.78
2019-03-15T23:57:19.065Z,4.58
2019-03-15T23:59:47.566Z,5.00
